Time;durP1;ratioP1;P1;durP2;ratioP2;P2;SDS_P1;SDS_P2;PMS_P1;PMS_P2;Temp;Humidity;BMP_temperature;BMP_pressure;BME280_temperature;BME280_humidity;BME280_pressure;Samples;Min_cycle;Max_cycle;Signal;HPM_P1;HPM_P2
2023/05/05 00:00:23;;;;;;;25.40;13.02;;;;;;;;;;2580608;23;20023;-93
2023/05/05 00:01:44;;;;;;;22.08;12.55;;;;;;;;;;2570710;22;20031;-93
2023/05/05 00:03:06;;;;;;;24.95;13.25;;;;;;;;;;2576978;23;20054;-93
2023/05/05 00:04:27;;;;;;;22.42;13.32;;;;;;;;;;2581084;23;20008;-94
2023/05/05 00:05:48;;;;;;;26.52;13.52;;;;;;;;;;2572155;22;20032;-94
2023/05/05 00:07:09;;;;;;;28.17;14.48;;;;;;;;;;2577245;23;20008;-94
2023/05/05 00:08:30;;;;;;;25.15;13.52;;;;;;;;;;2581337;23;20114;-95
2023/05/05 00:09:51;;;;;;;25.45;13.75;;;;;;;;;;2572176;22;20067;-93
2023/05/05 00:11:12;;;;;;;29.83;14.43;;;;;;;;;;2576252;23;20146;-93
2023/05/05 00:12:33;;;;;;;26.00;13.80;;;;;;;;;;2577792;23;20012;-93
2023/05/05 00:13:54;;;;;;;27.83;13.60;;;;;;;;;;2569901;22;20024;-93
2023/05/05 00:15:17;;;;;;;26.13;13.68;;;;;;;;;;2576601;23;20023;-93
2023/05/05 00:16:38;;;;;;;22.35;12.35;;;;;;;;;;2582093;23;20012;-94
2023/05/05 00:17:59;;;;;;;20.33;13.27;;;;;;;;;;2572382;22;20008;-94
2023/05/05 00:19:20;;;;;;;21.35;12.75;;;;;;;;;;2579388;23;20012;-93
2023/05/05 00:20:42;;;;;;;19.38;12.80;;;;;;;;;;2581624;23;20012;-93
2023/05/05 00:22:03;;;;;;;23.90;12.93;;;;;;;;;;2573566;22;20048;-94
2023/05/05 00:23:24;;;;;;;21.95;12.63;;;;;;;;;;2577795;23;20012;-94
2023/05/05 00:24:45;;;;;;;32.53;14.23;;;;;;;;;;2580818;23;20008;-93
2023/05/05 00:26:06;;;;;;;31.63;16.58;;;;;;;;;;2569371;22;20009;-93
2023/05/05 00:27:27;;;;;;;30.60;14.77;;;;;;;;;;2577860;23;20020;-94
2023/05/05 00:28:48;;;;;;;23.90;13.45;;;;;;;;;;2581425;23;20004;-94
2023/05/05 00:30:10;;;;;;;27.65;14.48;;;;;;;;;;2570681;22;20008;-94
2023/05/05 00:31:31;;;;;;;;;;;;;;;;;;2578160;23;20008;-94
2023/05/05 00:32:52;;;;;;;24.88;13.07;;;;;;;;;;2568836;23;19911;-94
2023/05/05 00:34:13;;;;;;;20.60;12.30;;;;;;;;;;2569243;23;20005;-94
2023/05/05 00:35:37;;;;;;;22.08;12.75;;;;;;;;;;2580477;23;20106;-93
2023/05/05 00:36:58;;;;;;;22.38;12.50;;;;;;;;;;2582970;23;20019;-94
2023/05/05 00:38:19;;;;;;;26.10;14.27;;;;;;;;;;2572842;22;20005;-94
2023/05/05 00:39:40;;;;;;;24.52;13.30;;;;;;;;;;2567768;23;20086;-94
2023/05/05 00:41:01;;;;;;;18.83;12.48;;;;;;;;;;2557159;23;20079;-94
2023/05/05 00:42:22;;;;;;;32.20;14.82;;;;;;;;;;2565914;23;20019;-95
2023/05/05 00:43:43;;;;;;;22.73;13.63;;;;;;;;;;2555836;23;20015;-94
2023/05/05 00:45:04;;;;;;;22.63;14.30;;;;;;;;;;2567860;23;20059;-94
2023/05/05 00:46:26;;;;;;;20.75;12.85;;;;;;;;;;2556201;23;20016;-94
2023/05/05 00:47:50;;;;;;;21.73;13.75;;;;;;;;;;2568577;23;20020;-93
2023/05/05 00:49:11;;;;;;;24.88;14.15;;;;;;;;;;2554948;23;20005;-93
2023/05/05 00:50:32;;;;;;;22.98;14.85;;;;;;;;;;2568687;23;20322;-93
2023/05/05 00:51:52;;;;;;;23.45;14.68;;;;;;;;;;2555857;23;20048;-94
2023/05/05 00:53:14;;;;;;;20.80;13.48;;;;;;;;;;2567729;23;20096;-93
2023/05/05 00:54:45;;;;;;;27.73;15.65;;;;;;;;;;2554031;23;20013;-94
2023/05/05 00:56:06;;;;;;;25.15;15.52;;;;;;;;;;2570658;23;20017;-93
2023/05/05 00:57:27;;;;;;;23.65;13.85;;;;;;;;;;2555638;23;20361;-94
2023/05/05 00:58:48;;;;;;;24.10;14.70;;;;;;;;;;2568713;23;20035;-94
2023/05/05 01:00:09;;;;;;;32.33;16.33;;;;;;;;;;2552817;23;20091;-93
2023/05/05 01:01:30;;;;;;;30.13;15.97;;;;;;;;;;2566961;23;20016;-95
2023/05/05 01:02:51;;;;;;;33.03;16.85;;;;;;;;;;2551313;23;20395;-94
2023/05/05 01:04:12;;;;;;;25.83;15.50;;;;;;;;;;2565454;23;20047;-93
2023/05/05 01:05:52;;;;;;;33.53;17.17;;;;;;;;;;2553598;23;20383;-93
2023/05/05 01:07:13;;;;;;;32.92;16.83;;;;;;;;;;2556367;23;20012;-93
2023/05/05 01:08:34;;;;;;;27.93;15.47;;;;;;;;;;2565547;23;20004;-93
2023/05/05 01:10:13;;;;;;;32.42;16.67;;;;;;;;;;2552956;23;20517;-94
2023/05/05 01:11:54;;;;;;;23.13;15.38;;;;;;;;;;2559110;23;20218;-94
2023/05/05 01:13:26;;;;;;;30.30;16.63;;;;;;;;;;2565724;23;20012;-93
2023/05/05 01:15:02;;;;;;;26.65;16.33;;;;;;;;;;2554098;23;20016;-93
2023/05/05 01:16:25;;;;;;;31.58;15.93;;;;;;;;;;2567800;23;20009;-94
2023/05/05 01:18:03;;;;;;;23.02;14.90;;;;;;;;;;2554027;23;20012;-94
2023/05/05 01:19:32;;;;;;;29.65;16.63;;;;;;;;;;2570555;23;20521;-94
2023/05/05 01:21:00;;;;;;;27.52;15.18;;;;;;;;;;2569713;23;20009;-93
2023/05/05 01:22:27;;;;;;;32.42;16.50;;;;;;;;;;2553444;23;20009;-93
2023/05/05 01:23:57;;;;;;;27.92;15.55;;;;;;;;;;2564836;23;20019;-93
2023/05/05 01:25:44;;;;;;;32.22;16.42;;;;;;;;;;2566684;23;20013;-92
2023/05/05 01:27:18;;;;;;;26.42;15.23;;;;;;;;;;2559168;23;20009;-93
2023/05/05 01:28:57;;;;;;;31.17;17.25;;;;;;;;;;2566087;23;20894;-93
2023/05/05 01:30:25;;;;;;;26.65;14.88;;;;;;;;;;2567744;23;20020;-93
2023/05/05 01:31:50;;;;;;;27.35;15.52;;;;;;;;;;2568227;23;20083;-93
2023/05/05 01:33:14;;;;;;;30.77;16.48;;;;;;;;;;2552756;23;20021;-93
2023/05/05 01:34:43;;;;;;;27.25;16.33;;;;;;;;;;2557972;23;20036;-93
2023/05/05 01:36:10;;;;;;;29.88;15.68;;;;;;;;;;2561598;23;20036;-93
2023/05/05 01:38:10;;;;;;;31.25;16.30;;;;;;;;;;2557350;23;20012;-93
2023/05/05 01:39:32;;;;;;;30.73;15.48;;;;;;;;;;2540546;23;20018;-92
2023/05/05 01:41:03;;;;;;;31.27;15.68;;;;;;;;;;2541198;23;20013;-93
2023/05/05 01:42:25;;;;;;;41.58;18.73;;;;;;;;;;2542164;23;20060;-93
2023/05/05 01:43:51;;;;;;;45.25;19.65;;;;;;;;;;2535087;23;20025;-93
2023/05/05 01:45:13;;;;;;;36.00;15.68;;;;;;;;;;2563014;23;20009;-93
2023/05/05 01:46:34;;;;;;;29.48;15.38;;;;;;;;;;2552795;23;20087;-93
2023/05/05 01:47:56;;;;;;;28.23;14.05;;;;;;;;;;2566466;23;20008;-92
2023/05/05 01:49:17;;;;;;;26.27;14.40;;;;;;;;;;2552319;23;20281;-93
2023/05/05 01:50:40;;;;;;;26.08;13.75;;;;;;;;;;2565702;23;20020;-93
2023/05/05 01:52:02;;;;;;;25.00;13.85;;;;;;;;;;2552791;23;20013;-93
2023/05/05 01:53:23;;;;;;;;;;;;;;;;;;2565692;23;20474;-93
2023/05/05 01:54:45;;;;;;;30.23;15.15;;;;;;;;;;2554269;23;19948;-93
2023/05/05 01:56:10;;;;;;;23.73;13.85;;;;;;;;;;2551663;23;20013;-93
2023/05/05 01:57:32;;;;;;;26.80;14.35;;;;;;;;;;2565183;23;20034;-93
2023/05/05 01:58:53;;;;;;;30.20;15.63;;;;;;;;;;2553716;23;20013;-93
2023/05/05 02:00:15;;;;;;;26.80;14.90;;;;;;;;;;2563823;23;20013;-94
2023/05/05 02:01:36;;;;;;;;;;;;;;;;;;2554464;23;20049;-93
2023/05/05 02:02:58;;;;;;;26.35;13.55;;;;;;;;;;2561486;23;19908;-93
2023/05/05 02:04:21;;;;;;;;;;;;;;;;;;2556409;23;20380;-93
2023/05/05 02:05:42;;;;;;;;;;;;;;;;;;2564046;23;19907;-93
2023/05/05 02:07:03;;;;;;;30.70;14.82;;;;;;;;;;2555734;23;20331;-92
2023/05/05 02:08:25;;;;;;;27.48;13.73;;;;;;;;;;2563937;23;20062;-93
2023/05/05 02:09:46;;;;;;;26.15;13.30;;;;;;;;;;2552762;23;20009;-94
2023/05/05 02:11:09;;;;;;;24.10;12.80;;;;;;;;;;2565534;23;20009;-93
2023/05/05 02:12:29;;;;;;;;;;;;;;;;;;2553016;23;20005;-93
2023/05/05 02:13:51;;;;;;;29.08;12.85;;;;;;;;;;2564930;23;19895;-93
2023/05/05 02:15:12;;;;;;;;;;;;;;;;;;2559056;23;20500;-93
2023/05/05 02:16:35;;;;;;;21.13;11.52;;;;;;;;;;2567526;23;19900;-93
2023/05/05 02:17:57;;;;;;;24.50;12.45;;;;;;;;;;2566675;23;20009;-92
2023/05/05 02:19:20;;;;;;;18.23;11.15;;;;;;;;;;2557824;23;20009;-92
2023/05/05 02:20:45;;;;;;;25.45;13.05;;;;;;;;;;2564483;23;20012;-93
2023/05/05 02:22:07;;;;;;;43.83;17.38;;;;;;;;;;2549701;23;20462;-91
2023/05/05 02:23:28;;;;;;;46.75;18.05;;;;;;;;;;2557240;23;20146;-94
2023/05/05 02:24:50;;;;;;;43.40;16.90;;;;;;;;;;2549566;23;20013;-94
2023/05/05 02:26:13;;;;;;;40.80;16.55;;;;;;;;;;2557334;23;20019;-94
2023/05/05 02:27:35;;;;;;;33.10;15.15;;;;;;;;;;2548800;23;20513;-93
2023/05/05 02:29:04;;;;;;;34.10;15.10;;;;;;;;;;2561060;23;20008;-94
2023/05/05 02:30:26;;;;;;;18.90;10.80;;;;;;;;;;2554969;23;20011;-94
2023/05/05 02:31:49;;;;;;;19.00;11.82;;;;;;;;;;2566278;23;20016;-91
2023/05/05 02:33:10;;;;;;;16.70;10.65;;;;;;;;;;2554985;23;20075;-91
2023/05/05 02:34:35;;;;;;;15.73;10.98;;;;;;;;;;2566127;23;20415;-92
2023/05/05 02:35:57;;;;;;;17.60;10.75;;;;;;;;;;2555344;23;20020;-92
2023/05/05 02:37:20;;;;;;;17.92;11.18;;;;;;;;;;2566755;23;20028;-91
2023/05/05 02:38:42;;;;;;;15.10;10.23;;;;;;;;;;2556548;23;20190;-92
2023/05/05 02:40:05;;;;;;;18.60;10.18;;;;;;;;;;2572451;23;20033;-90
2023/05/05 02:41:29;;;;;;;17.90;10.65;;;;;;;;;;2558367;23;20089;-91
2023/05/05 02:42:52;;;;;;;21.58;11.65;;;;;;;;;;2552246;23;20017;-91
2023/05/05 02:44:14;;;;;;;14.23;9.65;;;;;;;;;;2563771;23;20085;-91
2023/05/05 02:45:35;;;;;;;16.88;11.15;;;;;;;;;;2572948;23;20009;-91
2023/05/05 02:46:56;;;;;;;17.98;9.85;;;;;;;;;;2571542;23;20001;-91
2023/05/05 02:48:17;;;;;;;16.55;10.13;;;;;;;;;;2572088;23;20009;-91
2023/05/05 02:49:38;;;;;;;13.93;9.23;;;;;;;;;;2557961;23;20124;-91
2023/05/05 02:51:02;;;;;;;15.88;9.23;;;;;;;;;;2555402;23;20009;-90
2023/05/05 02:52:24;;;;;;;15.07;9.75;;;;;;;;;;2565602;23;20012;-91
2023/05/05 02:53:45;;;;;;;19.42;10.63;;;;;;;;;;2572019;23;20072;-91
2023/05/05 02:55:06;;;;;;;17.58;9.98;;;;;;;;;;2571713;23;20038;-91
2023/05/05 02:56:39;;;;;;;14.48;9.40;;;;;;;;;;2572141;23;20017;-92
2023/05/05 02:58:05;;;;;;;15.98;9.35;;;;;;;;;;2559136;23;20450;-91
2023/05/05 02:59:40;;;;;;;22.48;11.68;;;;;;;;;;2552403;23;20009;-91
2023/05/05 03:01:10;;;;;;;22.70;11.23;;;;;;;;;;2565644;23;20016;-91
2023/05/05 03:02:34;;;;;;;22.75;11.43;;;;;;;;;;2554609;23;20403;-92
2023/05/05 03:04:02;;;;;;;25.13;12.10;;;;;;;;;;2556020;23;20430;-92
2023/05/05 03:05:27;;;;;;;23.80;11.43;;;;;;;;;;2565371;23;20019;-91
2023/05/05 03:06:48;;;;;;;21.80;11.00;;;;;;;;;;2557225;23;20350;-91
2023/05/05 03:08:11;;;;;;;21.52;10.15;;;;;;;;;;2550217;23;20111;-91
2023/05/05 03:09:36;;;;;;;15.25;9.85;;;;;;;;;;2563198;23;20378;-90
2023/05/05 03:11:05;;;;;;;24.33;11.13;;;;;;;;;;2567130;23;20080;-91
2023/05/05 03:12:27;;;;;;;20.25;11.05;;;;;;;;;;2568780;23;20012;-91
2023/05/05 03:13:50;;;;;;;21.50;10.82;;;;;;;;;;2568655;23;20115;-91
2023/05/05 03:15:11;;;;;;;19.02;9.60;;;;;;;;;;2555510;23;20009;-91
2023/05/05 03:16:34;;;;;;;17.45;8.95;;;;;;;;;;2553424;23;20124;-91
2023/05/05 03:17:55;;;;;;;25.45;10.80;;;;;;;;;;2560866;23;20036;-91
2023/05/05 03:19:17;;;;;;;21.50;10.77;;;;;;;;;;2557802;23;20021;-91
2023/05/05 03:20:39;;;;;;;19.85;9.65;;;;;;;;;;2551477;23;20023;-92
2023/05/05 03:22:02;;;;;;;18.90;9.27;;;;;;;;;;2564836;23;20020;-92
2023/05/05 03:23:23;;;;;;;16.58;8.77;;;;;;;;;;2568126;23;20040;-92
2023/05/05 03:24:48;;;;;;;19.33;10.00;;;;;;;;;;2572282;23;20084;-92
2023/05/05 03:26:09;;;;;;;23.13;9.70;;;;;;;;;;2567247;23;20127;-92
2023/05/05 03:27:30;;;;;;;14.52;8.65;;;;;;;;;;2571821;23;20009;-91
2023/05/05 03:28:51;;;;;;;21.80;10.15;;;;;;;;;;2568195;23;20012;-92
2023/05/05 03:30:12;;;;;;;18.17;9.68;;;;;;;;;;2571418;23;20024;-92
2023/05/05 03:31:33;;;;;;;21.50;10.70;;;;;;;;;;2567643;23;20020;-91
2023/05/05 03:32:53;;;;;;;27.55;12.70;;;;;;;;;;2569010;23;20009;-91
2023/05/05 03:34:14;;;;;;;20.58;9.68;;;;;;;;;;2569311;23;20050;-91
2023/05/05 03:35:35;;;;;;;21.00;9.25;;;;;;;;;;2568400;23;20013;-91
2023/05/05 03:36:56;;;;;;;16.52;8.82;;;;;;;;;;2568341;23;20280;-92
2023/05/05 03:38:17;;;;;;;23.60;10.93;;;;;;;;;;2568005;23;20024;-91
2023/05/05 03:39:38;;;;;;;20.17;10.32;;;;;;;;;;2567509;23;20082;-93
2023/05/05 03:41:02;;;;;;;21.33;10.23;;;;;;;;;;2563192;23;20024;-91
2023/05/05 03:42:23;;;;;;;17.58;9.73;;;;;;;;;;2578551;23;20012;-92
2023/05/05 03:43:44;;;;;;;19.67;9.40;;;;;;;;;;2579031;23;20019;-91
2023/05/05 03:45:05;;;;;;;19.73;9.77;;;;;;;;;;2568621;23;20008;-91
2023/05/05 03:46:26;;;;;;;24.30;10.55;;;;;;;;;;2577356;23;20458;-92
2023/05/05 03:47:47;;;;;;;19.92;9.32;;;;;;;;;;2580919;23;20464;-91
2023/05/05 03:49:08;;;;;;;25.35;10.20;;;;;;;;;;2567578;23;20008;-91
2023/05/05 03:50:29;;;;;;;17.53;9.10;;;;;;;;;;2578420;23;20008;-92
2023/05/05 03:51:50;;;;;;;15.63;8.52;;;;;;;;;;2582076;23;20461;-90
2023/05/05 03:53:11;;;;;;;20.75;10.40;;;;;;;;;;2570004;23;20016;-90
2023/05/05 03:54:32;;;;;;;22.73;10.35;;;;;;;;;;2575062;23;20012;-91
2023/05/05 03:55:53;;;;;;;23.50;10.30;;;;;;;;;;2580037;23;20012;-90
2023/05/05 03:57:14;;;;;;;20.30;10.13;;;;;;;;;;2569503;22;20016;-91
2023/05/05 03:58:35;;;;;;;27.20;12.20;;;;;;;;;;2576017;23;20015;-90
2023/05/05 03:59:56;;;;;;;22.73;11.18;;;;;;;;;;2579036;23;20066;-91
2023/05/05 04:01:17;;;;;;;28.10;12.30;;;;;;;;;;2570292;22;20017;-91
2023/05/05 04:02:38;;;;;;;20.85;10.27;;;;;;;;;;2575786;23;20070;-91
2023/05/05 04:03:59;;;;;;;24.70;11.48;;;;;;;;;;2579463;23;20008;-91
2023/05/05 04:05:24;;;;;;;18.45;10.07;;;;;;;;;;2569857;22;20016;-91
2023/05/05 04:06:45;;;;;;;23.98;11.90;;;;;;;;;;2577504;23;20012;-92
2023/05/05 04:08:05;;;;;;;26.83;12.18;;;;;;;;;;2580195;23;20019;-90
2023/05/05 04:09:26;;;;;;;20.88;11.15;;;;;;;;;;2570766;22;20056;-90
2023/05/05 04:10:47;;;;;;;24.67;10.57;;;;;;;;;;2576017;23;20630;-92
2023/05/05 04:12:12;;;;;;;23.63;10.88;;;;;;;;;;2579880;23;20341;-92
2023/05/05 04:13:33;;;;;;;21.40;11.25;;;;;;;;;;2567802;22;20016;-91
2023/05/05 04:14:54;;;;;;;23.83;12.05;;;;;;;;;;2576297;23;20008;-91
2023/05/05 04:16:15;;;;;;;22.15;11.82;;;;;;;;;;2581949;23;20064;-91
2023/05/05 04:17:36;;;;;;;16.10;9.70;;;;;;;;;;2572577;22;20023;-91
2023/05/05 04:18:57;;;;;;;23.20;11.18;;;;;;;;;;2578990;23;20012;-92
2023/05/05 04:20:18;;;;;;;22.33;11.27;;;;;;;;;;2579822;23;20077;-91
2023/05/05 04:21:39;;;;;;;16.50;10.60;;;;;;;;;;2573047;22;20028;-92
2023/05/05 04:23:00;;;;;;;29.08;12.52;;;;;;;;;;2573655;23;20031;-90
2023/05/05 04:24:23;;;;;;;25.58;12.43;;;;;;;;;;2580001;23;20468;-91
2023/05/05 04:25:44;;;;;;;26.92;12.63;;;;;;;;;;2569467;22;20008;-91
2023/05/05 04:27:05;;;;;;;25.38;12.45;;;;;;;;;;2564387;23;20390;-91
2023/05/05 04:28:26;;;;;;;20.67;11.55;;;;;;;;;;2580091;22;20015;-91
2023/05/05 04:29:47;;;;;;;19.15;11.73;;;;;;;;;;2583509;23;20019;-91
2023/05/05 04:31:09;;;;;;;26.92;12.65;;;;;;;;;;2581338;23;20019;-91
2023/05/05 04:32:30;;;;;;;18.00;11.43;;;;;;;;;;2573218;22;20075;-91
2023/05/05 04:33:51;;;;;;;19.02;10.75;;;;;;;;;;2577490;23;20031;-91
2023/05/05 04:35:12;;;;;;;19.55;11.40;;;;;;;;;;2582185;23;20012;-91
2023/05/05 04:36:33;;;;;;;21.65;12.15;;;;;;;;;;2572578;22;20008;-92
2023/05/05 04:37:54;;;;;;;17.50;10.73;;;;;;;;;;2578772;23;20035;-91
2023/05/05 04:39:15;;;;;;;19.65;11.88;;;;;;;;;;2582181;22;20054;-92
2023/05/05 04:40:39;;;;;;;17.92;12.40;;;;;;;;;;2573085;22;20350;-91
2023/05/05 04:42:01;;;;;;;18.25;12.18;;;;;;;;;;2579727;23;20070;-91
2023/05/05 04:43:22;;;;;;;22.08;12.15;;;;;;;;;;2580507;23;20015;-91
2023/05/05 04:44:42;;;;;;;19.58;12.50;;;;;;;;;;2572960;22;20012;-91
2023/05/05 04:46:04;;;;;;;27.40;14.32;;;;;;;;;;2577822;23;20008;-90
2023/05/05 04:47:25;;;;;;;30.88;14.32;;;;;;;;;;2581401;23;20012;-91
2023/05/05 04:48:46;;;;;;;25.30;13.52;;;;;;;;;;2571927;22;20012;-91
2023/05/05 04:50:10;;;;;;;22.08;13.18;;;;;;;;;;2579163;23;20035;-92
2023/05/05 04:51:31;;;;;;;21.00;13.02;;;;;;;;;;2581420;23;20485;-91
2023/05/05 04:52:52;;;;;;;21.33;12.85;;;;;;;;;;2573328;22;20005;-91
2023/05/05 04:54:13;;;;;;;24.30;13.57;;;;;;;;;;2577149;23;20012;-91
2023/05/05 04:55:34;;;;;;;23.10;13.40;;;;;;;;;;2582432;23;20023;-91
2023/05/05 04:56:55;;;;;;;24.23;14.40;;;;;;;;;;2571829;22;20009;-91
2023/05/05 04:58:16;;;;;;;23.75;13.63;;;;;;;;;;2578725;23;20019;-90
2023/05/05 04:59:37;;;;;;;29.58;15.35;;;;;;;;;;2567185;23;20069;-91
2023/05/05 05:01:02;;;;;;;29.95;14.18;;;;;;;;;;2576348;23;20035;-91
2023/05/05 05:02:26;;;;;;;30.45;16.40;;;;;;;;;;2580170;23;20453;-91
2023/05/05 05:03:47;;;;;;;25.70;14.63;;;;;;;;;;2568289;22;20031;-90
2023/05/05 05:05:08;;;;;;;26.90;15.07;;;;;;;;;;2575464;23;20360;-91
2023/05/05 05:06:29;;;;;;;39.22;17.08;;;;;;;;;;2577703;23;20000;-91
2023/05/05 05:07:50;;;;;;;29.70;15.32;;;;;;;;;;2570247;22;20004;-90
2023/05/05 05:09:11;;;;;;;33.05;15.63;;;;;;;;;;2574851;23;20090;-90
2023/05/05 05:10:32;;;;;;;32.70;16.75;;;;;;;;;;2579400;23;20019;-91
2023/05/05 05:11:53;;;;;;;32.85;16.38;;;;;;;;;;2569578;22;20009;-91
2023/05/05 05:13:14;;;;;;;45.05;19.75;;;;;;;;;;2574894;23;20004;-92
2023/05/05 05:14:35;;;;;;;24.75;14.93;;;;;;;;;;2582232;23;20318;-91
2023/05/05 05:15:56;;;;;;;25.92;13.77;;;;;;;;;;2572215;23;20008;-91
2023/05/05 05:17:18;;;;;;;28.10;14.93;;;;;;;;;;2575404;23;20016;-91
2023/05/05 05:18:39;;;;;;;28.58;14.52;;;;;;;;;;2579610;23;20417;-92
2023/05/05 05:20:03;;;;;;;25.17;14.65;;;;;;;;;;2571231;22;20481;-91
2023/05/05 05:21:24;;;;;;;24.55;14.63;;;;;;;;;;2579136;23;20019;-90
2023/05/05 05:22:45;;;;;;;32.07;16.50;;;;;;;;;;2580539;23;20458;-91
2023/05/05 05:24:06;;;;;;;31.30;15.75;;;;;;;;;;2568235;22;20020;-91
2023/05/05 05:25:27;;;;;;;29.92;15.07;;;;;;;;;;2563086;23;20008;-91
2023/05/05 05:26:48;;;;;;;29.10;15.48;;;;;;;;;;2578777;22;20004;-90
2023/05/05 05:28:09;;;;;;;32.85;15.98;;;;;;;;;;2580642;23;20355;-91
2023/05/05 05:29:30;;;;;;;30.13;16.17;;;;;;;;;;2578690;23;20013;-91
2023/05/05 05:30:51;;;;;;;24.90;14.25;;;;;;;;;;2568419;22;20013;-92
2023/05/05 05:32:12;;;;;;;23.00;14.15;;;;;;;;;;2577350;23;20008;-93
2023/05/05 05:33:33;;;;;;;29.95;16.05;;;;;;;;;;2576896;23;20255;-93
2023/05/05 05:34:54;;;;;;;32.72;15.05;;;;;;;;;;2571107;22;20056;-93
2023/05/05 05:36:15;;;;;;;30.42;14.82;;;;;;;;;;2576182;23;20115;-92
2023/05/05 05:37:36;;;;;;;27.98;15.15;;;;;;;;;;2580460;23;20027;-92
2023/05/05 05:38:57;;;;;;;37.28;17.00;;;;;;;;;;2570184;22;20013;-92
2023/05/05 05:40:18;;;;;;;31.23;16.38;;;;;;;;;;2576169;23;20096;-92
2023/05/05 05:41:39;;;;;;;35.53;17.20;;;;;;;;;;2578041;23;20396;-93
2023/05/05 05:43:00;;;;;;;29.90;15.88;;;;;;;;;;2571527;22;20012;-93
2023/05/05 05:44:21;;;;;;;30.65;16.00;;;;;;;;;;2575930;23;20012;-94
2023/05/05 05:45:42;;;;;;;36.53;16.30;;;;;;;;;;2580380;23;20004;-93
2023/05/05 05:47:03;;;;;;;29.42;15.65;;;;;;;;;;2570777;22;20008;-91
2023/05/05 05:48:27;;;;;;;31.77;15.60;;;;;;;;;;2576977;23;20020;-92
2023/05/05 05:49:48;;;;;;;31.05;15.93;;;;;;;;;;2582147;23;20012;-91
2023/05/05 05:51:09;;;;;;;31.60;16.52;;;;;;;;;;2570111;22;20009;-91
2023/05/05 05:52:30;;;;;;;33.85;16.90;;;;;;;;;;2575995;23;20372;-91
2023/05/05 05:53:51;;;;;;;33.40;16.60;;;;;;;;;;2578623;23;20020;-91
2023/05/05 05:55:12;;;;;;;37.28;17.20;;;;;;;;;;2569350;22;20023;-91
2023/05/05 05:56:33;;;;;;;40.25;17.92;;;;;;;;;;2575298;23;20015;-91
2023/05/05 05:57:53;;;;;;;31.70;15.27;;;;;;;;;;2578783;23;20091;-92
2023/05/05 05:59:14;;;;;;;34.58;16.00;;;;;;;;;;2570368;22;20016;-91
2023/05/05 06:00:35;;;;;;;32.72;16.75;;;;;;;;;;2577048;23;20100;-91
2023/05/05 06:01:57;;;;;;;35.78;16.27;;;;;;;;;;2581479;23;20016;-91
2023/05/05 06:03:18;;;;;;;33.35;16.15;;;;;;;;;;2570410;22;20028;-91
2023/05/05 06:04:39;;;;;;;27.50;15.60;;;;;;;;;;2577517;23;20448;-91
2023/05/05 06:06:00;;;;;;;35.15;16.52;;;;;;;;;;2568016;23;20009;-91
2023/05/05 06:07:21;;;;;;;28.38;15.98;;;;;;;;;;2574464;23;20185;-91
2023/05/05 06:08:42;;;;;;;30.50;15.70;;;;;;;;;;2578137;23;20457;-91
2023/05/05 06:10:03;;;;;;;34.80;16.85;;;;;;;;;;2567597;22;20094;-91
2023/05/05 06:11:24;;;;;;;29.97;17.00;;;;;;;;;;2575371;23;20011;-91
2023/05/05 06:12:45;;;;;;;34.97;17.20;;;;;;;;;;2577918;23;20039;-91
2023/05/05 06:14:06;;;;;;;30.63;16.23;;;;;;;;;;2568251;22;20063;-91
2023/05/05 06:15:27;;;;;;;28.75;14.63;;;;;;;;;;2577198;23;20012;-91
2023/05/05 06:16:48;;;;;;;30.52;16.63;;;;;;;;;;2578502;23;20020;-92
2023/05/05 06:18:09;;;;;;;34.58;18.27;;;;;;;;;;2572013;22;20019;-92
2023/05/05 06:19:30;;;;;;;37.40;17.77;;;;;;;;;;2576896;23;20401;-91
2023/05/05 06:20:51;;;;;;;33.72;16.80;;;;;;;;;;2580965;23;20012;-91
2023/05/05 06:22:12;;;;;;;37.72;19.02;;;;;;;;;;2569840;22;20013;-91
2023/05/05 06:23:32;;;;;;;42.97;21.73;;;;;;;;;;2574953;23;20016;-91
2023/05/05 06:24:53;;;;;;;32.40;16.58;;;;;;;;;;2578903;23;20476;-91
2023/05/05 06:26:15;;;;;;;36.45;16.80;;;;;;;;;;2569379;22;20055;-91
2023/05/05 06:27:35;;;;;;;29.33;16.42;;;;;;;;;;2576889;23;20134;-91
2023/05/05 06:28:56;;;;;;;30.42;17.00;;;;;;;;;;2583361;23;20672;-91
2023/05/05 06:30:17;;;;;;;31.90;17.20;;;;;;;;;;2572232;22;20013;-91
2023/05/05 06:31:38;;;;;;;30.15;16.17;;;;;;;;;;2577497;23;20008;-91
2023/05/05 06:32:59;;;;;;;24.58;14.60;;;;;;;;;;2581543;23;20004;-91
2023/05/05 06:34:20;;;;;;;27.10;15.77;;;;;;;;;;2571764;22;20035;-90
2023/05/05 06:35:41;;;;;;;29.20;17.48;;;;;;;;;;2578461;23;20009;-91
2023/05/05 06:37:02;;;;;;;25.27;16.10;;;;;;;;;;2582437;23;20361;-92
2023/05/05 06:38:23;;;;;;;36.03;18.58;;;;;;;;;;2572701;22;20442;-91
2023/05/05 06:39:44;;;;;;;28.35;17.02;;;;;;;;;;2565612;23;20032;-91
2023/05/05 06:41:05;;;;;;;30.63;15.30;;;;;;;;;;2578760;23;20104;-90
2023/05/05 06:42:26;;;;;;;28.55;16.20;;;;;;;;;;2581570;23;20294;-91
2023/05/05 06:43:49;;;;;;;26.35;15.93;;;;;;;;;;2581434;23;20015;-94
2023/05/05 06:45:14;;;;;;;32.80;16.77;;;;;;;;;;2569938;23;20015;-96
2023/05/05 06:46:42;;;;;;;32.20;15.88;;;;;;;;;;2578710;23;20399;-96
2023/05/05 06:48:03;;;;;;;28.52;15.50;;;;;;;;;;2582104;23;20398;-95
2023/05/05 06:51:11;;;;;;;27.00;14.63;;;;;;;;;;2570443;23;20108;-96
2023/05/05 06:52:37;;;;;;;29.83;15.73;;;;;;;;;;2584018;23;20524;-96
2023/05/05 06:54:03;;;;;;;35.47;17.60;;;;;;;;;;2535713;22;20010;-96
2023/05/05 06:55:48;;;;;;;27.58;15.43;;;;;;;;;;2532573;23;20017;-96
2023/05/05 06:57:28;;;;;;;23.80;14.65;;;;;;;;;;2532697;23;20066;-96
2023/05/05 06:59:09;;;;;;;27.95;15.25;;;;;;;;;;2522417;23;20011;-95
2023/05/05 07:00:33;;;;;;;44.33;19.02;;;;;;;;;;2532057;23;20013;-96
2023/05/05 07:02:01;;;;;;;40.75;18.58;;;;;;;;;;2528564;23;20286;-96
2023/05/05 07:03:40;;;;;;;31.27;15.15;;;;;;;;;;2520607;23;20022;-96
2023/05/05 07:05:23;;;;;;;25.15;13.70;;;;;;;;;;2519562;23;20002;-96
2023/05/05 07:08:56;;;;;;;35.08;15.20;;;;;;;;;;2532532;23;20021;-96
2023/05/05 07:11:03;;;;;;;;;;;;;;;;;;;;;
2023/05/05 07:12:58;;;;;;;;;;;;;;;;;;;;;
2023/05/05 07:16:33;;;;;;;28.40;15.20;;;;;;;;;;2525506;23;20022;-96
2023/05/05 07:18:03;;;;;;;24.48;13.18;;;;;;;;;;2529184;23;20101;-96
2023/05/05 07:20:13;;;;;;;27.98;14.00;;;;;;;;;;2538555;23;20013;-96
2023/05/05 07:21:56;;;;;;;;;;;;;;;;;;;;;
2023/05/05 07:25:21;;;;;;;33.90;15.32;;;;;;;;;;2519793;23;20022;-96
2023/05/05 07:27:00;;;;;;;23.20;13.73;;;;;;;;;;2523573;23;20017;-96
2023/05/05 07:28:43;;;;;;;23.33;13.18;;;;;;;;;;2534499;23;20014;-96
2023/05/05 07:30:19;;;;;;;42.55;17.33;;;;;;;;;;2539418;23;20021;-96
2023/05/05 10:56:01;;;;;;;19.60;8.35;;;;;;;;;;2578784;22;20314;-91
2023/05/05 10:57:24;;;;;;;16.73;7.43;;;;;;;;;;2572742;23;20548;-91
2023/05/05 11:00:56;;;;;;;17.50;8.43;;;;;;;;;;2575302;23;20013;-91
2023/05/05 11:38:47;;;;;;;14.10;5.75;;;;;;;;;;2578756;23;20078;-76
2023/05/05 11:42:45;;;;;;;21.52;7.95;;;;;;;;;;2556510;23;20020;-76
2023/05/05 11:44:19;;;;;;;18.67;6.78;;;;;;;;;;2566943;23;20409;-76
2023/05/05 11:45:47;;;;;;;13.85;5.70;;;;;;;;;;2566607;23;20009;-76
2023/05/05 11:47:47;;;;;;;15.20;5.95;;;;;;;;;;2562756;23;20031;-79
2023/05/05 11:49:23;;;;;;;;;;;;;;;;;;;;;
2023/05/05 11:51:02;;;;;;;20.33;7.22;;;;;;;;;;2579147;23;20008;-79
2023/05/05 11:55:08;;;;;;;12.18;5.22;;;;;;;;;;2578691;23;20388;-80
2023/05/05 11:57:05;;;;;;;;;;;;;;;;;;;;;
2023/05/05 12:44:40;;;;;;;46.13;15.02;;;;;;;;;;2575128;23;20029;-96
2023/05/05 12:46:05;;;;;;;14.80;8.23;;;;;;;;;;2577360;23;20522;-96
2023/05/05 12:47:35;;;;;;;16.10;7.63;;;;;;;;;;2582953;23;20015;-96
2023/05/05 12:49:00;;;;;;;16.70;7.97;;;;;;;;;;2574152;23;20066;-96
2023/05/05 12:50:31;;;;;;;12.07;7.30;;;;;;;;;;2583752;23;20008;-96
2023/05/05 12:53:44;;;;;;;16.15;8.35;;;;;;;;;;2588740;23;20072;-96
2023/05/05 12:55:11;;;;;;;16.08;7.25;;;;;;;;;;2573977;23;20013;-96
2023/05/05 12:56:44;;;;;;;14.73;7.68;;;;;;;;;;2584691;23;20004;-96
2023/05/05 12:58:15;;;;;;;14.85;7.43;;;;;;;;;;2587752;23;20008;-96
2023/05/05 12:59:36;;;;;;;14.50;7.85;;;;;;;;;;2573789;23;20013;-96
2023/05/05 13:01:24;;;;;;;16.88;7.57;;;;;;;;;;2583881;23;20020;-96
2023/05/05 13:02:46;;;;;;;15.40;7.22;;;;;;;;;;2588586;22;20024;-96
2023/05/05 13:04:11;;;;;;;11.43;6.75;;;;;;;;;;2575003;23;20031;-96
2023/05/05 13:05:35;;;;;;;14.95;6.65;;;;;;;;;;2582676;23;20015;-96
2023/05/05 13:07:15;;;;;;;16.60;7.28;;;;;;;;;;2575897;23;20036;-96
2023/05/05 13:08:45;;;;;;;14.48;7.47;;;;;;;;;;2585705;23;20015;-96
2023/05/05 13:10:07;;;;;;;15.60;8.18;;;;;;;;;;2574894;23;20012;-96
2023/05/05 13:11:28;;;;;;;16.23;8.00;;;;;;;;;;2580695;23;20020;-96
2023/05/05 13:13:30;;;;;;;14.18;7.53;;;;;;;;;;2573447;23;20020;-96
2023/05/05 13:14:51;;;;;;;17.00;8.43;;;;;;;;;;2575763;23;20007;-96
2023/05/05 13:18:56;;;;;;;16.30;8.05;;;;;;;;;;2546419;23;20025;-96
2023/05/05 13:22:32;;;;;;;21.67;9.27;;;;;;;;;;2509573;23;20010;-96
2023/05/05 13:24:34;;;;;;;14.30;7.65;;;;;;;;;;2531119;23;20029;-96